<?xml version="1.0" encoding="utf-8"?>
<gpx xmlns:xsi="http://www.w3.org/2001/XMLSchema-instance" xmlns:xsd="http://www.w3.org/2001/XMLSchema" version="1.1" creator="Shapelink.com" xmlns="http://www.topografix.com/GPX/1/1" xmlns:gpxtpx="http://www.garmin.com/xmlschemas/TrackPointExtension/v1">
  <metadata>
    <name>Övrigt 3.51 km, 2019-04-28</name>
    <desc></desc>
    <author><name>Marian Moron</name></author> 
    <time>2019-04-28T10:49:42Z</time>
  </metadata>
  <trk>
    <name>Övrigt 3.51 km, 2019-04-28</name>
    <trkseg>
      <trkpt lat="51.207477213189" lon="4.406430041182">
        <ele>225.4</ele>
        <time>2019-04-28T10:49:42Z</time>
      </trkpt>
      <trkpt lat="51.208170731595" lon="4.406016729693">
        <ele>77.8</ele>
        <time>2019-04-28T10:49:43Z</time>
      </trkpt>
      <trkpt lat="51.208368628254" lon="4.405929055019">
        <ele>15.6</ele>
        <time>2019-04-28T10:51:12Z</time>
      </trkpt>
      <trkpt lat="51.208379440905" lon="4.405941795507">
        <ele>15.4</ele>
        <time>2019-04-28T10:51:13Z</time>
      </trkpt>
      <trkpt lat="51.208471306529" lon="4.406072720785">
        <ele>15.2</ele>
        <time>2019-04-28T10:51:24Z</time>
      </trkpt>
      <trkpt lat="51.208865758743" lon="4.406191911403">
        <ele>14</ele>
        <time>2019-04-28T10:52:05Z</time>
      </trkpt>
      <trkpt lat="51.209001629342" lon="4.406141703822">
        <ele>13</ele>
        <time>2019-04-28T10:52:13Z</time>
      </trkpt>
      <trkpt lat="51.209382670516" lon="4.405757728983">
        <ele>11.2</ele>
        <time>2019-04-28T10:52:48Z</time>
      </trkpt>
      <trkpt lat="51.209555170018" lon="4.405712215266">
        <ele>9.8</ele>
        <time>2019-04-28T10:53:04Z</time>
      </trkpt>
      <trkpt lat="51.209887093258" lon="4.406225187546">
        <ele>8.8</ele>
        <time>2019-04-28T10:53:39Z</time>
      </trkpt>
      <trkpt lat="51.210095215835" lon="4.406715109601">
        <ele>12.4</ele>
        <time>2019-04-28T10:54:20Z</time>
      </trkpt>
      <trkpt lat="51.21049461337" lon="4.407025658996">
        <ele>22.8</ele>
        <time>2019-04-28T10:54:54Z</time>
      </trkpt>
      <trkpt lat="51.210664514483" lon="4.407529327367">
        <ele>7.8</ele>
        <time>2019-04-28T10:56:14Z</time>
      </trkpt>
      <trkpt lat="51.210737939927" lon="4.407524130589">
        <ele>9.2</ele>
        <time>2019-04-28T10:56:20Z</time>
      </trkpt>
      <trkpt lat="51.210910607067" lon="4.407514742861">
        <ele>7.2</ele>
        <time>2019-04-28T10:56:35Z</time>
      </trkpt>
      <trkpt lat="51.211214786218" lon="4.407579534948">
        <ele>7.4</ele>
        <time>2019-04-28T10:56:59Z</time>
      </trkpt>
      <trkpt lat="51.211338586881" lon="4.40758691102">
        <ele>19.2</ele>
        <time>2019-04-28T10:57:36Z</time>
      </trkpt>
      <trkpt lat="51.211428440849" lon="4.407390020189">
        <ele>2.6</ele>
        <time>2019-04-28T10:59:07Z</time>
      </trkpt>
      <trkpt lat="51.211519635921" lon="4.407763517653">
        <ele>29.8</ele>
        <time>2019-04-28T10:59:29Z</time>
      </trkpt>
      <trkpt lat="51.211951303771" lon="4.407547096995">
        <ele>47.6</ele>
        <time>2019-04-28T11:00:12Z</time>
      </trkpt>
      <trkpt lat="51.212117600667" lon="4.407516167784">
        <ele>40</ele>
        <time>2019-04-28T11:00:26Z</time>
      </trkpt>
      <trkpt lat="51.212566032317" lon="4.4073622761">
        <ele>16.6</ele>
        <time>2019-04-28T11:00:57Z</time>
      </trkpt>
      <trkpt lat="51.21302007984" lon="4.407181059422">
        <ele>24.8</ele>
        <time>2019-04-28T11:01:31Z</time>
      </trkpt>
      <trkpt lat="51.2134844371" lon="4.407165385269">
        <ele>46.2</ele>
        <time>2019-04-28T11:02:11Z</time>
      </trkpt>
      <trkpt lat="51.213773277374" lon="4.407516335422">
        <ele>43.6</ele>
        <time>2019-04-28T11:02:46Z</time>
      </trkpt>
      <trkpt lat="51.213895317838" lon="4.40824405198">
        <ele>18.2</ele>
        <time>2019-04-28T11:03:17Z</time>
      </trkpt>
      <trkpt lat="51.213886852119" lon="4.408485785976">
        <ele>16.8</ele>
        <time>2019-04-28T11:03:29Z</time>
      </trkpt>
      <trkpt lat="51.213878721676" lon="4.408613861408">
        <ele>14</ele>
        <time>2019-04-28T11:03:35Z</time>
      </trkpt>
      <trkpt lat="51.21396052902" lon="4.409006218147">
        <ele>2.8</ele>
        <time>2019-04-28T11:03:58Z</time>
      </trkpt>
      <trkpt lat="51.214059016345" lon="4.409064891447">
        <ele>2.8</ele>
        <time>2019-04-28T11:04:14Z</time>
      </trkpt>
      <trkpt lat="51.214211902201" lon="4.40921886695">
        <ele>7.2</ele>
        <time>2019-04-28T11:04:31Z</time>
      </trkpt>
      <trkpt lat="51.214221960481" lon="4.409274271309">
        <ele>5.2</ele>
        <time>2019-04-28T11:04:48Z</time>
      </trkpt>
      <trkpt lat="51.214236964082" lon="4.409349708409">
        <ele>5.6</ele>
        <time>2019-04-28T11:04:54Z</time>
      </trkpt>
      <trkpt lat="51.214349030085" lon="4.409445262069">
        <ele>1.4</ele>
        <time>2019-04-28T11:05:17Z</time>
      </trkpt>
      <trkpt lat="51.214368559912" lon="4.409560094099">
        <ele>1</ele>
        <time>2019-04-28T11:05:30Z</time>
      </trkpt>
      <trkpt lat="51.214281891066" lon="4.409471497416">
        <ele>0</ele>
        <time>2019-04-28T11:05:55Z</time>
      </trkpt>
      <trkpt lat="51.214340815823" lon="4.409434784694">
        <ele>0.2</ele>
        <time>2019-04-28T11:06:09Z</time>
      </trkpt>
      <trkpt lat="51.214337211606" lon="4.409506198482">
        <ele>4.4</ele>
        <time>2019-04-28T11:06:21Z</time>
      </trkpt>
      <trkpt lat="51.214259427574" lon="4.409472084149">
        <ele>3.4</ele>
        <time>2019-04-28T11:07:44Z</time>
      </trkpt>
      <trkpt lat="51.214220116463" lon="4.409462696421">
        <ele>0</ele>
        <time>2019-04-28T11:08:44Z</time>
      </trkpt>
      <trkpt lat="51.214269150578" lon="4.409501420799">
        <ele>1.2</ele>
        <time>2019-04-28T11:08:50Z</time>
      </trkpt>
      <trkpt lat="51.214394627621" lon="4.409493625632">
        <ele>1.2</ele>
        <time>2019-04-28T11:09:30Z</time>
      </trkpt>
      <trkpt lat="51.214363195496" lon="4.409419864912">
        <ele>0.2</ele>
        <time>2019-04-28T11:09:36Z</time>
      </trkpt>
      <trkpt lat="51.214366045342" lon="4.409475604547">
        <ele>2.2</ele>
        <time>2019-04-28T11:10:04Z</time>
      </trkpt>
      <trkpt lat="51.21438716773" lon="4.409467474104">
        <ele>2.8</ele>
        <time>2019-04-28T11:10:06Z</time>
      </trkpt>
      <trkpt lat="51.214403596254" lon="4.409467138828">
        <ele>8.4</ele>
        <time>2019-04-28T11:10:23Z</time>
      </trkpt>
      <trkpt lat="51.214384150246" lon="4.409432186305">
        <ele>0</ele>
        <time>2019-04-28T11:11:39Z</time>
      </trkpt>
      <trkpt lat="51.214358333994" lon="4.409482980619">
        <ele>0</ele>
        <time>2019-04-28T11:11:46Z</time>
      </trkpt>
      <trkpt lat="51.214287339301" lon="4.409477113289">
        <ele>1.8</ele>
        <time>2019-04-28T11:11:55Z</time>
      </trkpt>
      <trkpt lat="51.214330757543" lon="4.409422463301">
        <ele>2.6</ele>
        <time>2019-04-28T11:12:05Z</time>
      </trkpt>
      <trkpt lat="51.21451708718" lon="4.409349205495">
        <ele>15.4</ele>
        <time>2019-04-28T11:12:40Z</time>
      </trkpt>
      <trkpt lat="51.214506945081" lon="4.409374351195">
        <ele>15</ele>
        <time>2019-04-28T11:13:44Z</time>
      </trkpt>
      <trkpt lat="51.21451792537" lon="4.409590017482">
        <ele>12.8</ele>
        <time>2019-04-28T11:14:17Z</time>
      </trkpt>
      <trkpt lat="51.214451289265" lon="4.409751201419">
        <ele>8</ele>
        <time>2019-04-28T11:14:39Z</time>
      </trkpt>
      <trkpt lat="51.214303767825" lon="4.409699904191">
        <ele>4.6</ele>
        <time>2019-04-28T11:14:53Z</time>
      </trkpt>
      <trkpt lat="51.214296475572" lon="4.409646930583">
        <ele>2.2</ele>
        <time>2019-04-28T11:14:57Z</time>
      </trkpt>
      <trkpt lat="51.214303181092" lon="4.409595381898">
        <ele>1</ele>
        <time>2019-04-28T11:15:00Z</time>
      </trkpt>
      <trkpt lat="51.214475596775" lon="4.409405280406">
        <ele>10</ele>
        <time>2019-04-28T11:15:26Z</time>
      </trkpt>
      <trkpt lat="51.214552123522" lon="4.409545006679">
        <ele>15.8</ele>
        <time>2019-04-28T11:15:41Z</time>
      </trkpt>
      <trkpt lat="51.214571318073" lon="4.409792859462">
        <ele>15.6</ele>
        <time>2019-04-28T11:15:55Z</time>
      </trkpt>
      <trkpt lat="51.214527396917" lon="4.41004280772">
        <ele>11.2</ele>
        <time>2019-04-28T11:16:09Z</time>
      </trkpt>
      <trkpt lat="51.214407787204" lon="4.410016153278">
        <ele>9.8</ele>
        <time>2019-04-28T11:16:18Z</time>
      </trkpt>
      <trkpt lat="51.214458246242" lon="4.409413578487">
        <ele>3.2</ele>
        <time>2019-04-28T11:16:54Z</time>
      </trkpt>
      <trkpt lat="51.214536700826" lon="4.409379128878">
        <ele>0</ele>
        <time>2019-04-28T11:17:13Z</time>
      </trkpt>
      <trkpt lat="51.214411726697" lon="4.409508210138">
        <ele>4.2</ele>
        <time>2019-04-28T11:17:26Z</time>
      </trkpt>
      <trkpt lat="51.21439890239" lon="4.409638464864">
        <ele>8</ele>
        <time>2019-04-28T11:17:33Z</time>
      </trkpt>
      <trkpt lat="51.214442572089" lon="4.409965358964">
        <ele>4.6</ele>
        <time>2019-04-28T11:17:59Z</time>
      </trkpt>
      <trkpt lat="51.214494791326" lon="4.409943817481">
        <ele>3.6</ele>
        <time>2019-04-28T11:18:05Z</time>
      </trkpt>
      <trkpt lat="51.214518512103" lon="4.409322215777">
        <ele>0</ele>
        <time>2019-04-28T11:18:44Z</time>
      </trkpt>
      <trkpt lat="51.214524882347" lon="4.409336716464">
        <ele>1</ele>
        <time>2019-04-28T11:18:57Z</time>
      </trkpt>
      <trkpt lat="51.214512812411" lon="4.409396982325">
        <ele>2.6</ele>
        <time>2019-04-28T11:19:05Z</time>
      </trkpt>
      <trkpt lat="51.214485655055" lon="4.40940997427">
        <ele>4</ele>
        <time>2019-04-28T11:19:07Z</time>
      </trkpt>
      <trkpt lat="51.214531839324" lon="4.409361945983">
        <ele>10.2</ele>
        <time>2019-04-28T11:19:27Z</time>
      </trkpt>
      <trkpt lat="51.214549860409" lon="4.40933034622">
        <ele>10.4</ele>
        <time>2019-04-28T11:19:29Z</time>
      </trkpt>
      <trkpt lat="51.214481212648" lon="4.409319617388">
        <ele>20</ele>
        <time>2019-04-28T11:19:53Z</time>
      </trkpt>
      <trkpt lat="51.214454055292" lon="4.40933286079">
        <ele>22.2</ele>
        <time>2019-04-28T11:19:57Z</time>
      </trkpt>
      <trkpt lat="51.214395130535" lon="4.409422630939">
        <ele>24.8</ele>
        <time>2019-04-28T11:20:07Z</time>
      </trkpt>
      <trkpt lat="51.214477776069" lon="4.40943009083">
        <ele>23.8</ele>
        <time>2019-04-28T11:20:17Z</time>
      </trkpt>
      <trkpt lat="51.214575928118" lon="4.409397820515">
        <ele>20.4</ele>
        <time>2019-04-28T11:20:29Z</time>
      </trkpt>
      <trkpt lat="51.214563355268" lon="4.409427911536">
        <ele>14</ele>
        <time>2019-04-28T11:20:45Z</time>
      </trkpt>
      <trkpt lat="51.214555727739" lon="4.409444172422">
        <ele>13.4</ele>
        <time>2019-04-28T11:20:47Z</time>
      </trkpt>
      <trkpt lat="51.214501077751" lon="4.409756817292">
        <ele>8.2</ele>
        <time>2019-04-28T11:21:04Z</time>
      </trkpt>
      <trkpt lat="51.214487918168" lon="4.409770731246">
        <ele>8</ele>
        <time>2019-04-28T11:21:06Z</time>
      </trkpt>
      <trkpt lat="51.214405943186" lon="4.409693366309">
        <ele>6.6</ele>
        <time>2019-04-28T11:21:15Z</time>
      </trkpt>
      <trkpt lat="51.214497976448" lon="4.409388516606">
        <ele>2.4</ele>
        <time>2019-04-28T11:21:37Z</time>
      </trkpt>
      <trkpt lat="51.214544915088" lon="4.409330681496">
        <ele>3.8</ele>
        <time>2019-04-28T11:21:51Z</time>
      </trkpt>
      <trkpt lat="51.214473752757" lon="4.409380553801">
        <ele>5.6</ele>
        <time>2019-04-28T11:21:59Z</time>
      </trkpt>
      <trkpt lat="51.214432178533" lon="4.409314336791">
        <ele>9.8</ele>
        <time>2019-04-28T11:22:08Z</time>
      </trkpt>
      <trkpt lat="51.21446260483" lon="4.409275360956">
        <ele>11</ele>
        <time>2019-04-28T11:22:13Z</time>
      </trkpt>
      <trkpt lat="51.214492695851" lon="4.409261782278">
        <ele>12.2</ele>
        <time>2019-04-28T11:22:16Z</time>
      </trkpt>
      <trkpt lat="51.214492528213" lon="4.409460098032">
        <ele>27.6</ele>
        <time>2019-04-28T11:22:39Z</time>
      </trkpt>
      <trkpt lat="51.214559667232" lon="4.409391114995">
        <ele>34.4</ele>
        <time>2019-04-28T11:23:06Z</time>
      </trkpt>
      <trkpt lat="51.214485906512" lon="4.409415925419">
        <ele>30</ele>
        <time>2019-04-28T11:23:31Z</time>
      </trkpt>
      <trkpt lat="51.214459922622" lon="4.409441154938">
        <ele>29.6</ele>
        <time>2019-04-28T11:23:36Z</time>
      </trkpt>
      <trkpt lat="51.214455396396" lon="4.409436041979">
        <ele>29.8</ele>
        <time>2019-04-28T11:23:39Z</time>
      </trkpt>
      <trkpt lat="51.21447769225" lon="4.409378374507">
        <ele>19.6</ele>
        <time>2019-04-28T11:24:26Z</time>
      </trkpt>
      <trkpt lat="51.214496300068" lon="4.409404526035">
        <ele>20.8</ele>
        <time>2019-04-28T11:24:32Z</time>
      </trkpt>
      <trkpt lat="51.214472830748" lon="4.409560261737">
        <ele>16.2</ele>
        <time>2019-04-28T11:24:49Z</time>
      </trkpt>
      <trkpt lat="51.214440979528" lon="4.409562105755">
        <ele>15.6</ele>
        <time>2019-04-28T11:24:52Z</time>
      </trkpt>
      <trkpt lat="51.214418851312" lon="4.409512736364">
        <ele>13</ele>
        <time>2019-04-28T11:24:57Z</time>
      </trkpt>
      <trkpt lat="51.214534940627" lon="4.40937560848">
        <ele>6.6</ele>
        <time>2019-04-28T11:25:12Z</time>
      </trkpt>
      <trkpt lat="51.214586237855" lon="4.409309726746">
        <ele>2.2</ele>
        <time>2019-04-28T11:25:19Z</time>
      </trkpt>
      <trkpt lat="51.214663518973" lon="4.409290196919">
        <ele>5.8</ele>
        <time>2019-04-28T11:25:34Z</time>
      </trkpt>
      <trkpt lat="51.214599648895" lon="4.409345601278">
        <ele>14.4</ele>
        <time>2019-04-28T11:25:42Z</time>
      </trkpt>
      <trkpt lat="51.214354394501" lon="4.409636453208">
        <ele>35.8</ele>
        <time>2019-04-28T11:26:14Z</time>
      </trkpt>
      <trkpt lat="51.214409463584" lon="4.409784393743">
        <ele>31.8</ele>
        <time>2019-04-28T11:26:27Z</time>
      </trkpt>
      <trkpt lat="51.214447768867" lon="4.409773832549">
        <ele>26.4</ele>
        <time>2019-04-28T11:26:31Z</time>
      </trkpt>
      <trkpt lat="51.214533096609" lon="4.409731671592">
        <ele>15.8</ele>
        <time>2019-04-28T11:26:37Z</time>
      </trkpt>
      <trkpt lat="51.214543993079" lon="4.409681799287">
        <ele>11</ele>
        <time>2019-04-28T11:26:40Z</time>
      </trkpt>
      <trkpt lat="51.214554973368" lon="4.409436963988">
        <ele>0</ele>
        <time>2019-04-28T11:26:54Z</time>
      </trkpt>
      <trkpt lat="51.214533431885" lon="4.409336632645">
        <ele>0</ele>
        <time>2019-04-28T11:27:13Z</time>
      </trkpt>
      <trkpt lat="51.214568384408" lon="4.409318946836">
        <ele>0</ele>
        <time>2019-04-28T11:27:15Z</time>
      </trkpt>
      <trkpt lat="51.214525301442" lon="4.409375776118">
        <ele>4.4</ele>
        <time>2019-04-28T11:27:40Z</time>
      </trkpt>
      <trkpt lat="51.214486325607" lon="4.409402011465">
        <ele>11.2</ele>
        <time>2019-04-28T11:27:46Z</time>
      </trkpt>
      <trkpt lat="51.21452211632" lon="4.409374937928">
        <ele>17</ele>
        <time>2019-04-28T11:27:55Z</time>
      </trkpt>
      <trkpt lat="51.214514237334" lon="4.409463199335">
        <ele>24.8</ele>
        <time>2019-04-28T11:28:27Z</time>
      </trkpt>
      <trkpt lat="51.214498898457" lon="4.409423552948">
        <ele>20.6</ele>
        <time>2019-04-28T11:28:43Z</time>
      </trkpt>
      <trkpt lat="51.21452714546" lon="4.409452889598">
        <ele>13.4</ele>
        <time>2019-04-28T11:29:19Z</time>
      </trkpt>
      <trkpt lat="51.214518009189" lon="4.409526650318">
        <ele>13.4</ele>
        <time>2019-04-28T11:29:27Z</time>
      </trkpt>
      <trkpt lat="51.214474004214" lon="4.409547856525">
        <ele>14.6</ele>
        <time>2019-04-28T11:29:31Z</time>
      </trkpt>
      <trkpt lat="51.214410217955" lon="4.409720188389">
        <ele>13.2</ele>
        <time>2019-04-28T11:29:44Z</time>
      </trkpt>
      <trkpt lat="51.214416588199" lon="4.409765450649">
        <ele>12.2</ele>
        <time>2019-04-28T11:29:47Z</time>
      </trkpt>
      <trkpt lat="51.214428993411" lon="4.409791602177">
        <ele>11.8</ele>
        <time>2019-04-28T11:29:49Z</time>
      </trkpt>
      <trkpt lat="51.214528151288" lon="4.409864524707">
        <ele>7.8</ele>
        <time>2019-04-28T11:30:00Z</time>
      </trkpt>
      <trkpt lat="51.214503257045" lon="4.410271382133">
        <ele>3.4</ele>
        <time>2019-04-28T11:30:23Z</time>
      </trkpt>
      <trkpt lat="51.214522200139" lon="4.410294348539">
        <ele>3.2</ele>
        <time>2019-04-28T11:30:25Z</time>
      </trkpt>
      <trkpt lat="51.214544915088" lon="4.410302395163">
        <ele>2.8</ele>
        <time>2019-04-28T11:30:27Z</time>
      </trkpt>
      <trkpt lat="51.214611467374" lon="4.410311531434">
        <ele>1.8</ele>
        <time>2019-04-28T11:30:34Z</time>
      </trkpt>
      <trkpt lat="51.214663602792" lon="4.41026492807">
        <ele>1.2</ele>
        <time>2019-04-28T11:30:39Z</time>
      </trkpt>
      <trkpt lat="51.214693609994" lon="4.410292923616">
        <ele>0.2</ele>
        <time>2019-04-28T11:30:46Z</time>
      </trkpt>
      <trkpt lat="51.214691682157" lon="4.410272052685">
        <ele>0</ele>
        <time>2019-04-28T11:31:34Z</time>
      </trkpt>
      <trkpt lat="51.214668715751" lon="4.41031102852">
        <ele>0</ele>
        <time>2019-04-28T11:31:49Z</time>
      </trkpt>
      <trkpt lat="51.214646671354" lon="4.410279428757">
        <ele>0</ele>
        <time>2019-04-28T11:31:52Z</time>
      </trkpt>
      <trkpt lat="51.214647425725" lon="4.410251936125">
        <ele>0</ele>
        <time>2019-04-28T11:31:54Z</time>
      </trkpt>
      <trkpt lat="51.214664357163" lon="4.410128722195">
        <ele>0</ele>
        <time>2019-04-28T11:32:05Z</time>
      </trkpt>
      <trkpt lat="51.214683719352" lon="4.410236094334">
        <ele>0</ele>
        <time>2019-04-28T11:32:25Z</time>
      </trkpt>
      <trkpt lat="51.214676678556" lon="4.410333575831">
        <ele>0</ele>
        <time>2019-04-28T11:32:33Z</time>
      </trkpt>
      <trkpt lat="51.214660333851" lon="4.410399625203">
        <ele>0.8</ele>
        <time>2019-04-28T11:32:52Z</time>
      </trkpt>
      <trkpt lat="51.214674834538" lon="4.410293510349">
        <ele>4</ele>
        <time>2019-04-28T11:33:28Z</time>
      </trkpt>
      <trkpt lat="51.214627309165" lon="4.410145988909">
        <ele>4.4</ele>
        <time>2019-04-28T11:33:53Z</time>
      </trkpt>
      <trkpt lat="51.214623788767" lon="4.410212289738">
        <ele>4.2</ele>
        <time>2019-04-28T11:33:58Z</time>
      </trkpt>
      <trkpt lat="51.214682378248" lon="4.410304742095">
        <ele>2.8</ele>
        <time>2019-04-28T11:34:35Z</time>
      </trkpt>
      <trkpt lat="51.214667626104" lon="4.410236345791">
        <ele>3.2</ele>
        <time>2019-04-28T11:34:58Z</time>
      </trkpt>
      <trkpt lat="51.214736525322" lon="4.410279428757">
        <ele>2</ele>
        <time>2019-04-28T11:36:15Z</time>
      </trkpt>
      <trkpt lat="51.214730322716" lon="4.410297785118">
        <ele>1.8</ele>
        <time>2019-04-28T11:37:09Z</time>
      </trkpt>
      <trkpt lat="51.214719677703" lon="4.410303568629">
        <ele>1</ele>
        <time>2019-04-28T11:37:10Z</time>
      </trkpt>
      <trkpt lat="51.214662345507" lon="4.410311782891">
        <ele>0.4</ele>
        <time>2019-04-28T11:37:17Z</time>
      </trkpt>
      <trkpt lat="51.214651868132" lon="4.410303400991">
        <ele>0</ele>
        <time>2019-04-28T11:37:47Z</time>
      </trkpt>
      <trkpt lat="51.214664440982" lon="4.410305496466">
        <ele>0</ele>
        <time>2019-04-28T11:37:59Z</time>
      </trkpt>
      <trkpt lat="51.214703081541" lon="4.410314129823">
        <ele>0</ele>
        <time>2019-04-28T11:38:12Z</time>
      </trkpt>
      <trkpt lat="51.214686066284" lon="4.410277668558">
        <ele>4.8</ele>
        <time>2019-04-28T11:40:36Z</time>
      </trkpt>
      <trkpt lat="51.214642145128" lon="4.410276327454">
        <ele>6.4</ele>
        <time>2019-04-28T11:40:45Z</time>
      </trkpt>
      <trkpt lat="51.21434442004" lon="4.410252439039">
        <ele>5.2</ele>
        <time>2019-04-28T11:41:08Z</time>
      </trkpt>
      <trkpt lat="51.214380126934" lon="4.409960078367">
        <ele>3.6</ele>
        <time>2019-04-28T11:41:22Z</time>
      </trkpt>
      <trkpt lat="51.214382892961" lon="4.409919677609">
        <ele>3.6</ele>
        <time>2019-04-28T11:41:24Z</time>
      </trkpt>
      <trkpt lat="51.214374846337" lon="4.409503180998">
        <ele>3.4</ele>
        <time>2019-04-28T11:41:46Z</time>
      </trkpt>
      <trkpt lat="51.214261020135" lon="4.409458924566">
        <ele>3.2</ele>
        <time>2019-04-28T11:41:55Z</time>
      </trkpt>
      <trkpt lat="51.21421952973" lon="4.409415673962">
        <ele>2.8</ele>
        <time>2019-04-28T11:42:03Z</time>
      </trkpt>
      <trkpt lat="51.214222714852" lon="4.409407711157">
        <ele>5.2</ele>
        <time>2019-04-28T11:45:32Z</time>
      </trkpt>
      <trkpt lat="51.214108972469" lon="4.409351803884">
        <ele>4.8</ele>
        <time>2019-04-28T11:46:29Z</time>
      </trkpt>
      <trkpt lat="51.21391023762" lon="4.409305619615">
        <ele>3</ele>
        <time>2019-04-28T11:46:44Z</time>
      </trkpt>
      <trkpt lat="51.213900430797" lon="4.409249544704">
        <ele>3.4</ele>
        <time>2019-04-28T11:46:47Z</time>
      </trkpt>
      <trkpt lat="51.213901101349" lon="4.409143346031">
        <ele>3.2</ele>
        <time>2019-04-28T11:46:52Z</time>
      </trkpt>
      <trkpt lat="51.214012245343" lon="4.408413617817">
        <ele>5.8</ele>
        <time>2019-04-28T11:47:20Z</time>
      </trkpt>
      <trkpt lat="51.214032864817" lon="4.40769671391">
        <ele>9</ele>
        <time>2019-04-28T11:47:50Z</time>
      </trkpt>
      <trkpt lat="51.213954829328" lon="4.407378285529">
        <ele>8</ele>
        <time>2019-04-28T11:48:06Z</time>
      </trkpt>
      <trkpt lat="51.213921301728" lon="4.407348278327">
        <ele>6.8</ele>
        <time>2019-04-28T11:48:09Z</time>
      </trkpt>
      <trkpt lat="51.213747880217" lon="4.407198577593">
        <ele>0</ele>
        <time>2019-04-28T11:48:28Z</time>
      </trkpt>
      <trkpt lat="51.213347728311" lon="4.407266051888">
        <ele>0</ele>
        <time>2019-04-28T11:48:54Z</time>
      </trkpt>
      <trkpt lat="51.212900805403" lon="4.40736646705">
        <ele>0</ele>
        <time>2019-04-28T11:49:24Z</time>
      </trkpt>
      <trkpt lat="51.212708189341" lon="4.407433019336">
        <ele>1</ele>
        <time>2019-04-28T11:49:35Z</time>
      </trkpt>
      <trkpt lat="51.212655886285" lon="4.40743016949">
        <ele>1</ele>
        <time>2019-04-28T11:49:39Z</time>
      </trkpt>
      <trkpt lat="51.212210807395" lon="4.407501164183">
        <ele>6.4</ele>
        <time>2019-04-28T11:50:14Z</time>
      </trkpt>
      <trkpt lat="51.212203850418" lon="4.407507115332">
        <ele>8.2</ele>
        <time>2019-04-28T11:50:15Z</time>
      </trkpt>
      <trkpt lat="51.212167892067" lon="4.407534524145">
        <ele>12.2</ele>
        <time>2019-04-28T11:50:19Z</time>
      </trkpt>
      <trkpt lat="51.211732536181" lon="4.407730660605">
        <ele>6.4</ele>
        <time>2019-04-28T11:50:45Z</time>
      </trkpt>
      <trkpt lat="51.211655422701" lon="4.407774749399">
        <ele>4.6</ele>
        <time>2019-04-28T11:50:50Z</time>
      </trkpt>
      <trkpt lat="51.21139399124" lon="4.407791932294">
        <ele>0</ele>
        <time>2019-04-28T11:51:05Z</time>
      </trkpt>
      <trkpt lat="51.211013201523" lon="4.407693277331">
        <ele>0</ele>
        <time>2019-04-28T11:51:43Z</time>
      </trkpt>
      <trkpt lat="51.210583880605" lon="4.407822777686">
        <ele>4.2</ele>
        <time>2019-04-28T11:52:16Z</time>
      </trkpt>
      <trkpt lat="51.210369136327" lon="4.407512060653">
        <ele>5.6</ele>
        <time>2019-04-28T11:52:33Z</time>
      </trkpt>
      <trkpt lat="51.21016688108" lon="4.406774621091">
        <ele>20.6</ele>
        <time>2019-04-28T11:53:04Z</time>
      </trkpt>
      <trkpt lat="51.209947107662" lon="4.406164167314">
        <ele>27.6</ele>
        <time>2019-04-28T11:53:37Z</time>
      </trkpt>
      <trkpt lat="51.20972347857" lon="4.405681369874">
        <ele>27.2</ele>
        <time>2019-04-28T11:54:09Z</time>
      </trkpt>
      <trkpt lat="51.20967989269" lon="4.405715065112">
        <ele>25.6</ele>
        <time>2019-04-28T11:54:13Z</time>
      </trkpt>
      <trkpt lat="51.209218469095" lon="4.405926875725">
        <ele>7.8</ele>
        <time>2019-04-28T11:54:44Z</time>
      </trkpt>
      <trkpt lat="51.209095841898" lon="4.406069535663">
        <ele>14.6</ele>
        <time>2019-04-28T11:54:57Z</time>
      </trkpt>
      <trkpt lat="51.208760314441" lon="4.406244549735">
        <ele>18.6</ele>
        <time>2019-04-28T11:55:30Z</time>
      </trkpt>
      <trkpt lat="51.208467115579" lon="4.405870633176">
        <ele>9</ele>
        <time>2019-04-28T11:56:18Z</time>
      </trkpt>
    </trkseg>
  </trk>
</gpx>